CheckWX is a tool to help pilots better visualize weather data.  It is not intended as a substitute for an official pre-flight weather briefing.

06:11:51 UTC

KDIJ METAR
Driggs-Reed Memorial Airport
Driggs, Idaho, USA
Current

16 mins ago

KDIJ 050556Z AUTO 14013KT 10SM FEW050 BKN070 OVC080 03/M06 A2972 RMK AO2 SLP068 T00331061 10033 20011 58010
Observed
Apr-5 @ 05:56 UTC
Wind
  • 140° at 13 KTS
Visibility
Flight Rules
VFR
Cloud Levels
  • Few at 5,000' AGL
  • Broken at 7,000' AGL
  • Overcast at 8,000' AGL
Temperature
C / 37°F
Dewpoint
-6°C / 21°F
Humidity
52%
Altimeter
29.72" Hg
Pressure
1006.42 hPa
Previous

1 hour ago

KDIJ 050456Z AUTO 17008KT 10SM FEW070 BKN090 OVC100 02/M07 A2974 RMK AO2 SLP077 T00221072
Observed
Apr-5 @ 04:56 UTC
Wind
  • 170° at 8 KTS
Visibility
Flight Rules
VFR
Cloud Levels
  • Few at 7,000' AGL
  • Broken at 9,000' AGL
  • Overcast at 10,000' AGL
Temperature
C / 36°F
Dewpoint
-7°C / 19°F
Humidity
52%
Altimeter
29.74" Hg
Pressure
1007.12 hPa
Previous

2 hours ago

KDIJ 050356Z AUTO VRB04KT 10SM SCT110 02/M09 A2976 RMK AO2 SLP089 T00221094
Observed
Apr-5 @ 03:56 UTC
Wind
  • Variable at 4 KTS
Visibility
Flight Rules
VFR
Cloud Levels
  • Scattered at 11,000' AGL
Temperature
C / 36°F
Dewpoint
-9°C / 16°F
Humidity
44%
Altimeter
29.76" Hg
Pressure
1007.82 hPa